Terminal Aerodrome Forecast
Issued by NWS Wichita, KS

Home | Current Version | Previous Version | Text Only | Print | Product List | Glossary On
Versions: 1 2 3 4 5 6 7 8 9 10 11 12 13 14 15 16 17 18 19
000
FTUS43 KICT 301440 AAB
TAFICT
TAF AMD
KICT 301440Z 3015/3112 16007KT P6SM BKN050
      TEMPO 3015/3017 -TSRA BKN050CB
     FM301800 14009KT P6SM BKN040=

USA.gov is the U.S. government's official web portal to all federal, state and local government web resources and services.